sensor_id;sensor_type;location;lat;lon;timestamp;P1;durP1;ratioP1;P2;durP2;ratioP2
21543;SDS011;10933;50.754;11.508;2023-05-07T00:00:13;28.67;;;25.58;;
21543;SDS011;10933;50.754;11.508;2023-05-07T00:02:40;34.15;;;25.52;;
21543;SDS011;10933;50.754;11.508;2023-05-07T00:05:07;29.73;;;26.10;;
21543;SDS011;10933;50.754;11.508;2023-05-07T00:07:33;27.98;;;25.27;;
21543;SDS011;10933;50.754;11.508;2023-05-07T00:10:00;31.02;;;25.83;;
21543;SDS011;10933;50.754;11.508;2023-05-07T00:12:26;31.73;;;25.88;;
21543;SDS011;10933;50.754;11.508;2023-05-07T00:14:52;30.45;;;25.38;;
21543;SDS011;10933;50.754;11.508;2023-05-07T00:17:18;28.80;;;25.48;;
21543;SDS011;10933;50.754;11.508;2023-05-07T00:19:44;28.02;;;25.33;;
21543;SDS011;10933;50.754;11.508;2023-05-07T00:22:11;27.98;;;24.98;;
21543;SDS011;10933;50.754;11.508;2023-05-07T00:24:37;27.90;;;24.95;;
21543;SDS011;10933;50.754;11.508;2023-05-07T00:27:03;34.33;;;25.27;;
21543;SDS011;10933;50.754;11.508;2023-05-07T00:29:31;31.52;;;25.17;;
21543;SDS011;10933;50.754;11.508;2023-05-07T00:31:57;27.30;;;24.50;;
21543;SDS011;10933;50.754;11.508;2023-05-07T00:34:23;26.77;;;24.05;;
21543;SDS011;10933;50.754;11.508;2023-05-07T00:36:49;27.65;;;24.58;;
21543;SDS011;10933;50.754;11.508;2023-05-07T00:39:15;28.02;;;25.23;;
21543;SDS011;10933;50.754;11.508;2023-05-07T00:41:41;29.58;;;25.77;;
21543;SDS011;10933;50.754;11.508;2023-05-07T00:44:07;31.85;;;26.52;;
21543;SDS011;10933;50.754;11.508;2023-05-07T00:46:33;34.85;;;25.98;;
21543;SDS011;10933;50.754;11.508;2023-05-07T00:48:59;27.83;;;25.13;;
21543;SDS011;10933;50.754;11.508;2023-05-07T00:51:26;31.85;;;26.15;;
21543;SDS011;10933;50.754;11.508;2023-05-07T00:53:53;27.88;;;24.95;;
21543;SDS011;10933;50.754;11.508;2023-05-07T00:56:20;32.35;;;24.85;;
21543;SDS011;10933;50.754;11.508;2023-05-07T00:58:47;31.40;;;25.45;;
21543;SDS011;10933;50.754;11.508;2023-05-07T01:01:13;34.08;;;27.27;;
21543;SDS011;10933;50.754;11.508;2023-05-07T01:03:41;30.45;;;26.08;;
21543;SDS011;10933;50.754;11.508;2023-05-07T01:06:08;30.67;;;26.30;;
21543;SDS011;10933;50.754;11.508;2023-05-07T01:08:36;33.25;;;27.38;;
21543;SDS011;10933;50.754;11.508;2023-05-07T01:11:04;34.30;;;26.90;;
21543;SDS011;10933;50.754;11.508;2023-05-07T01:13:31;43.10;;;28.02;;
21543;SDS011;10933;50.754;11.508;2023-05-07T01:15:59;34.33;;;26.83;;
21543;SDS011;10933;50.754;11.508;2023-05-07T01:18:25;35.15;;;26.20;;
21543;SDS011;10933;50.754;11.508;2023-05-07T01:20:52;34.28;;;25.90;;
21543;SDS011;10933;50.754;11.508;2023-05-07T01:23:19;34.72;;;26.58;;
21543;SDS011;10933;50.754;11.508;2023-05-07T01:25:52;30.48;;;26.70;;
21543;SDS011;10933;50.754;11.508;2023-05-07T01:28:18;33.20;;;25.65;;
21543;SDS011;10933;50.754;11.508;2023-05-07T01:30:46;27.38;;;22.52;;
21543;SDS011;10933;50.754;11.508;2023-05-07T01:33:23;27.17;;;24.30;;
21543;SDS011;10933;50.754;11.508;2023-05-07T01:35:51;28.50;;;23.40;;
21543;SDS011;10933;50.754;11.508;2023-05-07T01:38:18;26.30;;;23.50;;
21543;SDS011;10933;50.754;11.508;2023-05-07T01:40:47;24.80;;;22.40;;
21543;SDS011;10933;50.754;11.508;2023-05-07T01:43:13;25.00;;;22.48;;
21543;SDS011;10933;50.754;11.508;2023-05-07T01:45:39;24.83;;;22.52;;
21543;SDS011;10933;50.754;11.508;2023-05-07T01:48:06;31.92;;;24.20;;
21543;SDS011;10933;50.754;11.508;2023-05-07T01:50:34;38.83;;;25.65;;
21543;SDS011;10933;50.754;11.508;2023-05-07T01:53:02;32.55;;;25.60;;
21543;SDS011;10933;50.754;11.508;2023-05-07T01:55:28;39.17;;;27.70;;
21543;SDS011;10933;50.754;11.508;2023-05-07T01:57:54;40.00;;;27.00;;
21543;SDS011;10933;50.754;11.508;2023-05-07T02:00:20;33.92;;;27.05;;
21543;SDS011;10933;50.754;11.508;2023-05-07T02:02:46;40.20;;;26.90;;
21543;SDS011;10933;50.754;11.508;2023-05-07T02:05:12;35.40;;;26.95;;
21543;SDS011;10933;50.754;11.508;2023-05-07T02:07:38;34.33;;;27.10;;
21543;SDS011;10933;50.754;11.508;2023-05-07T02:10:05;41.00;;;27.58;;
21543;SDS011;10933;50.754;11.508;2023-05-07T02:12:31;35.00;;;26.77;;
21543;SDS011;10933;50.754;11.508;2023-05-07T02:14:57;30.33;;;26.23;;
21543;SDS011;10933;50.754;11.508;2023-05-07T02:17:23;31.92;;;25.00;;
21543;SDS011;10933;50.754;11.508;2023-05-07T02:19:50;34.40;;;25.10;;
21543;SDS011;10933;50.754;11.508;2023-05-07T02:22:16;31.63;;;25.13;;
21543;SDS011;10933;50.754;11.508;2023-05-07T02:24:43;30.73;;;25.40;;
21543;SDS011;10933;50.754;11.508;2023-05-07T02:27:09;32.80;;;25.02;;
21543;SDS011;10933;50.754;11.508;2023-05-07T02:29:35;30.23;;;24.43;;
21543;SDS011;10933;50.754;11.508;2023-05-07T02:32:01;33.25;;;24.88;;
21543;SDS011;10933;50.754;11.508;2023-05-07T02:34:27;33.97;;;23.87;;
21543;SDS011;10933;50.754;11.508;2023-05-07T02:36:53;32.72;;;24.75;;
21543;SDS011;10933;50.754;11.508;2023-05-07T02:39:20;29.40;;;24.08;;
21543;SDS011;10933;50.754;11.508;2023-05-07T02:41:46;29.50;;;24.03;;
21543;SDS011;10933;50.754;11.508;2023-05-07T02:44:12;26.85;;;23.95;;
21543;SDS011;10933;50.754;11.508;2023-05-07T02:46:39;27.60;;;24.70;;
21543;SDS011;10933;50.754;11.508;2023-05-07T02:49:05;32.70;;;25.15;;
21543;SDS011;10933;50.754;11.508;2023-05-07T02:51:31;31.80;;;25.40;;
21543;SDS011;10933;50.754;11.508;2023-05-07T02:53:57;26.93;;;24.20;;
21543;SDS011;10933;50.754;11.508;2023-05-07T02:56:25;29.90;;;24.33;;
21543;SDS011;10933;50.754;11.508;2023-05-07T02:58:51;29.87;;;24.83;;
21543;SDS011;10933;50.754;11.508;2023-05-07T03:01:18;26.83;;;23.30;;
21543;SDS011;10933;50.754;11.508;2023-05-07T03:03:44;28.07;;;23.77;;
21543;SDS011;10933;50.754;11.508;2023-05-07T03:06:10;25.57;;;23.00;;
21543;SDS011;10933;50.754;11.508;2023-05-07T03:08:36;26.93;;;23.43;;
21543;SDS011;10933;50.754;11.508;2023-05-07T03:11:02;27.47;;;23.87;;
21543;SDS011;10933;50.754;11.508;2023-05-07T03:13:28;27.40;;;23.13;;
21543;SDS011;10933;50.754;11.508;2023-05-07T03:15:54;25.53;;;22.50;;
21543;SDS011;10933;50.754;11.508;2023-05-07T03:18:20;23.70;;;21.30;;
21543;SDS011;10933;50.754;11.508;2023-05-07T03:20:47;24.00;;;21.53;;
21543;SDS011;10933;50.754;11.508;2023-05-07T03:23:14;24.33;;;21.87;;
21543;SDS011;10933;50.754;11.508;2023-05-07T03:25:40;23.90;;;21.00;;
21543;SDS011;10933;50.754;11.508;2023-05-07T03:28:06;24.77;;;22.27;;
21543;SDS011;10933;50.754;11.508;2023-05-07T03:30:32;23.83;;;21.42;;
21543;SDS011;10933;50.754;11.508;2023-05-07T03:32:58;22.67;;;20.47;;
21543;SDS011;10933;50.754;11.508;2023-05-07T03:35:24;31.40;;;20.90;;
21543;SDS011;10933;50.754;11.508;2023-05-07T03:37:51;22.07;;;20.07;;
21543;SDS011;10933;50.754;11.508;2023-05-07T03:40:17;22.40;;;20.20;;
21543;SDS011;10933;50.754;11.508;2023-05-07T03:42:43;20.90;;;19.17;;
21543;SDS011;10933;50.754;11.508;2023-05-07T03:45:09;20.57;;;18.80;;
21543;SDS011;10933;50.754;11.508;2023-05-07T03:47:35;21.30;;;19.13;;
21543;SDS011;10933;50.754;11.508;2023-05-07T03:50:01;20.77;;;19.07;;
21543;SDS011;10933;50.754;11.508;2023-05-07T03:52:28;19.57;;;18.00;;
21543;SDS011;10933;50.754;11.508;2023-05-07T03:54:54;20.50;;;18.87;;
21543;SDS011;10933;50.754;11.508;2023-05-07T03:57:20;19.73;;;18.23;;
21543;SDS011;10933;50.754;11.508;2023-05-07T03:59:46;20.57;;;18.57;;
21543;SDS011;10933;50.754;11.508;2023-05-07T04:02:12;21.00;;;18.90;;
21543;SDS011;10933;50.754;11.508;2023-05-07T04:04:38;18.67;;;17.33;;
21543;SDS011;10933;50.754;11.508;2023-05-07T04:07:04;18.07;;;16.67;;
21543;SDS011;10933;50.754;11.508;2023-05-07T04:09:32;19.83;;;18.23;;
21543;SDS011;10933;50.754;11.508;2023-05-07T04:11:58;19.60;;;17.60;;
21543;SDS011;10933;50.754;11.508;2023-05-07T04:14:24;18.87;;;17.40;;
21543;SDS011;10933;50.754;11.508;2023-05-07T04:16:50;19.10;;;17.70;;
21543;SDS011;10933;50.754;11.508;2023-05-07T04:19:16;17.40;;;16.10;;
21543;SDS011;10933;50.754;11.508;2023-05-07T04:21:42;17.60;;;16.00;;
21543;SDS011;10933;50.754;11.508;2023-05-07T04:24:08;18.10;;;16.77;;
21543;SDS011;10933;50.754;11.508;2023-05-07T04:26:35;16.63;;;15.37;;
21543;SDS011;10933;50.754;11.508;2023-05-07T04:29:01;17.20;;;15.70;;
21543;SDS011;10933;50.754;11.508;2023-05-07T04:31:27;16.43;;;15.23;;
21543;SDS011;10933;50.754;11.508;2023-05-07T04:33:53;15.80;;;14.60;;
21543;SDS011;10933;50.754;11.508;2023-05-07T04:36:20;17.63;;;16.10;;
21543;SDS011;10933;50.754;11.508;2023-05-07T04:38:46;17.10;;;15.67;;
21543;SDS011;10933;50.754;11.508;2023-05-07T04:41:12;16.17;;;15.07;;
21543;SDS011;10933;50.754;11.508;2023-05-07T04:43:39;15.30;;;14.33;;
21543;SDS011;10933;50.754;11.508;2023-05-07T04:46:06;15.17;;;13.97;;
21543;SDS011;10933;50.754;11.508;2023-05-07T04:48:32;15.10;;;13.80;;
21543;SDS011;10933;50.754;11.508;2023-05-07T04:50:58;15.73;;;14.53;;
21543;SDS011;10933;50.754;11.508;2023-05-07T04:53:25;15.63;;;14.13;;
21543;SDS011;10933;50.754;11.508;2023-05-07T04:55:54;14.93;;;13.90;;
21543;SDS011;10933;50.754;11.508;2023-05-07T04:58:22;14.83;;;13.80;;
21543;SDS011;10933;50.754;11.508;2023-05-07T05:00:48;13.80;;;12.83;;
21543;SDS011;10933;50.754;11.508;2023-05-07T05:03:14;15.30;;;14.10;;
21543;SDS011;10933;50.754;11.508;2023-05-07T05:05:40;14.27;;;13.27;;
21543;SDS011;10933;50.754;11.508;2023-05-07T05:08:07;14.30;;;13.40;;
21543;SDS011;10933;50.754;11.508;2023-05-07T05:10:33;14.53;;;13.53;;
21543;SDS011;10933;50.754;11.508;2023-05-07T05:12:59;14.37;;;13.13;;
21543;SDS011;10933;50.754;11.508;2023-05-07T05:15:25;15.80;;;12.57;;
21543;SDS011;10933;50.754;11.508;2023-05-07T05:17:51;13.97;;;12.97;;
21543;SDS011;10933;50.754;11.508;2023-05-07T05:20:17;13.07;;;12.27;;
21543;SDS011;10933;50.754;11.508;2023-05-07T05:22:43;13.83;;;12.67;;
21543;SDS011;10933;50.754;11.508;2023-05-07T05:25:09;14.70;;;13.53;;
21543;SDS011;10933;50.754;11.508;2023-05-07T05:27:35;14.67;;;13.23;;
21543;SDS011;10933;50.754;11.508;2023-05-07T05:30:02;14.37;;;13.47;;
21543;SDS011;10933;50.754;11.508;2023-05-07T05:32:28;14.60;;;13.30;;
21543;SDS011;10933;50.754;11.508;2023-05-07T05:34:55;13.67;;;12.77;;
21543;SDS011;10933;50.754;11.508;2023-05-07T05:37:21;14.57;;;13.67;;
21543;SDS011;10933;50.754;11.508;2023-05-07T05:39:47;14.33;;;13.37;;
21543;SDS011;10933;50.754;11.508;2023-05-07T05:42:13;14.83;;;13.73;;
21543;SDS011;10933;50.754;11.508;2023-05-07T05:44:39;15.17;;;13.97;;
21543;SDS011;10933;50.754;11.508;2023-05-07T05:47:05;14.83;;;13.80;;
21543;SDS011;10933;50.754;11.508;2023-05-07T05:49:31;15.60;;;14.50;;
21543;SDS011;10933;50.754;11.508;2023-05-07T05:51:58;14.97;;;14.03;;
21543;SDS011;10933;50.754;11.508;2023-05-07T05:54:24;16.13;;;15.00;;
21543;SDS011;10933;50.754;11.508;2023-05-07T05:56:50;16.70;;;15.43;;
21543;SDS011;10933;50.754;11.508;2023-05-07T05:59:16;16.50;;;15.30;;
21543;SDS011;10933;50.754;11.508;2023-05-07T06:01:42;16.90;;;15.40;;
21543;SDS011;10933;50.754;11.508;2023-05-07T06:04:08;18.90;;;17.00;;
21543;SDS011;10933;50.754;11.508;2023-05-07T06:06:34;19.27;;;17.47;;
21543;SDS011;10933;50.754;11.508;2023-05-07T06:09:01;20.63;;;18.87;;
21543;SDS011;10933;50.754;11.508;2023-05-07T06:11:27;20.93;;;18.73;;
21543;SDS011;10933;50.754;11.508;2023-05-07T06:13:53;20.43;;;18.70;;
21543;SDS011;10933;50.754;11.508;2023-05-07T06:16:19;21.15;;;18.88;;
21543;SDS011;10933;50.754;11.508;2023-05-07T06:18:45;20.13;;;18.40;;
21543;SDS011;10933;50.754;11.508;2023-05-07T06:21:13;19.50;;;17.67;;
21543;SDS011;10933;50.754;11.508;2023-05-07T06:23:40;20.77;;;18.57;;
21543;SDS011;10933;50.754;11.508;2023-05-07T06:26:06;19.80;;;18.20;;
21543;SDS011;10933;50.754;11.508;2023-05-07T06:28:32;19.40;;;17.77;;
21543;SDS011;10933;50.754;11.508;2023-05-07T06:31:14;21.17;;;19.37;;
21543;SDS011;10933;50.754;11.508;2023-05-07T06:33:41;20.40;;;18.50;;
21543;SDS011;10933;50.754;11.508;2023-05-07T06:36:08;23.33;;;19.17;;
21543;SDS011;10933;50.754;11.508;2023-05-07T06:38:35;20.43;;;18.47;;
21543;SDS011;10933;50.754;11.508;2023-05-07T06:41:01;22.13;;;18.80;;
21543;SDS011;10933;50.754;11.508;2023-05-07T06:43:27;20.63;;;18.63;;
21543;SDS011;10933;50.754;11.508;2023-05-07T06:45:53;18.90;;;17.42;;
21543;SDS011;10933;50.754;11.508;2023-05-07T06:48:19;19.03;;;17.03;;
21543;SDS011;10933;50.754;11.508;2023-05-07T06:50:45;18.77;;;17.17;;
21543;SDS011;10933;50.754;11.508;2023-05-07T06:53:12;18.43;;;16.73;;
21543;SDS011;10933;50.754;11.508;2023-05-07T06:55:38;18.37;;;16.47;;
21543;SDS011;10933;50.754;11.508;2023-05-07T06:58:04;18.13;;;16.67;;
21543;SDS011;10933;50.754;11.508;2023-05-07T07:00:31;18.87;;;17.23;;
21543;SDS011;10933;50.754;11.508;2023-05-07T07:02:57;18.83;;;17.33;;
21543;SDS011;10933;50.754;11.508;2023-05-07T07:05:25;19.37;;;17.37;;
21543;SDS011;10933;50.754;11.508;2023-05-07T07:07:51;18.27;;;16.77;;
21543;SDS011;10933;50.754;11.508;2023-05-07T07:10:20;19.53;;;17.70;;
21543;SDS011;10933;50.754;11.508;2023-05-07T07:12:47;18.43;;;16.80;;
21543;SDS011;10933;50.754;11.508;2023-05-07T07:15:14;19.30;;;17.63;;
21543;SDS011;10933;50.754;11.508;2023-05-07T07:17:41;20.53;;;18.63;;
21543;SDS011;10933;50.754;11.508;2023-05-07T07:20:07;20.30;;;18.47;;
21543;SDS011;10933;50.754;11.508;2023-05-07T07:22:34;20.20;;;18.23;;
21543;SDS011;10933;50.754;11.508;2023-05-07T07:25:00;21.23;;;17.30;;
21543;SDS011;10933;50.754;11.508;2023-05-07T07:27:26;19.47;;;17.77;;
21543;SDS011;10933;50.754;11.508;2023-05-07T07:29:52;20.60;;;18.53;;
21543;SDS011;10933;50.754;11.508;2023-05-07T07:32:18;22.57;;;20.13;;
21543;SDS011;10933;50.754;11.508;2023-05-07T07:34:44;20.10;;;18.47;;
21543;SDS011;10933;50.754;11.508;2023-05-07T07:37:10;20.08;;;18.42;;
21543;SDS011;10933;50.754;11.508;2023-05-07T07:39:36;19.98;;;18.17;;
21543;SDS011;10933;50.754;11.508;2023-05-07T07:42:02;20.25;;;18.40;;
21543;SDS011;10933;50.754;11.508;2023-05-07T07:44:29;20.38;;;18.23;;
21543;SDS011;10933;50.754;11.508;2023-05-07T07:46:55;20.27;;;18.27;;
21543;SDS011;10933;50.754;11.508;2023-05-07T07:49:21;20.23;;;18.42;;
21543;SDS011;10933;50.754;11.508;2023-05-07T07:51:47;20.92;;;19.17;;
21543;SDS011;10933;50.754;11.508;2023-05-07T07:54:13;19.73;;;18.08;;
21543;SDS011;10933;50.754;11.508;2023-05-07T07:56:39;21.20;;;18.98;;
21543;SDS011;10933;50.754;11.508;2023-05-07T07:59:05;19.97;;;18.30;;
21543;SDS011;10933;50.754;11.508;2023-05-07T08:01:31;21.23;;;19.15;;
21543;SDS011;10933;50.754;11.508;2023-05-07T08:03:58;21.10;;;18.92;;
21543;SDS011;10933;50.754;11.508;2023-05-07T08:06:24;21.00;;;18.90;;
21543;SDS011;10933;50.754;11.508;2023-05-07T08:08:51;20.10;;;18.38;;
21543;SDS011;10933;50.754;11.508;2023-05-07T08:11:17;20.30;;;18.05;;
21543;SDS011;10933;50.754;11.508;2023-05-07T08:13:45;20.75;;;18.55;;
21543;SDS011;10933;50.754;11.508;2023-05-07T08:16:12;19.77;;;18.08;;
21543;SDS011;10933;50.754;11.508;2023-05-07T08:18:38;24.92;;;18.70;;
21543;SDS011;10933;50.754;11.508;2023-05-07T08:21:04;19.90;;;18.17;;
21543;SDS011;10933;50.754;11.508;2023-05-07T08:23:31;20.45;;;18.50;;
21543;SDS011;10933;50.754;11.508;2023-05-07T08:25:59;20.48;;;18.52;;
21543;SDS011;10933;50.754;11.508;2023-05-07T08:28:25;20.15;;;18.17;;
21543;SDS011;10933;50.754;11.508;2023-05-07T08:30:51;19.25;;;17.73;;
21543;SDS011;10933;50.754;11.508;2023-05-07T08:33:17;19.38;;;17.95;;
21543;SDS011;10933;50.754;11.508;2023-05-07T08:35:44;19.50;;;17.90;;
21543;SDS011;10933;50.754;11.508;2023-05-07T08:38:11;22.33;;;19.00;;
21543;SDS011;10933;50.754;11.508;2023-05-07T08:40:38;21.08;;;19.35;;
21543;SDS011;10933;50.754;11.508;2023-05-07T08:43:06;20.30;;;18.65;;
21543;SDS011;10933;50.754;11.508;2023-05-07T08:45:32;19.88;;;18.05;;
21543;SDS011;10933;50.754;11.508;2023-05-07T08:48:01;19.73;;;18.10;;
21543;SDS011;10933;50.754;11.508;2023-05-07T08:50:31;19.95;;;18.20;;
21543;SDS011;10933;50.754;11.508;2023-05-07T08:53:00;21.15;;;19.23;;
21543;SDS011;10933;50.754;11.508;2023-05-07T08:55:28;19.75;;;18.25;;
21543;SDS011;10933;50.754;11.508;2023-05-07T08:57:55;19.50;;;17.88;;
21543;SDS011;10933;50.754;11.508;2023-05-07T09:00:21;19.40;;;17.80;;
21543;SDS011;10933;50.754;11.508;2023-05-07T09:02:47;18.75;;;17.55;;
21543;SDS011;10933;50.754;11.508;2023-05-07T09:05:13;19.63;;;18.15;;
21543;SDS011;10933;50.754;11.508;2023-05-07T09:07:39;19.05;;;17.33;;
21543;SDS011;10933;50.754;11.508;2023-05-07T09:10:06;18.40;;;17.20;;
21543;SDS011;10933;50.754;11.508;2023-05-07T09:12:32;19.58;;;18.17;;
21543;SDS011;10933;50.754;11.508;2023-05-07T09:15:00;19.00;;;17.58;;
21543;SDS011;10933;50.754;11.508;2023-05-07T09:17:27;18.85;;;17.38;;
21543;SDS011;10933;50.754;11.508;2023-05-07T09:19:54;20.10;;;18.50;;
21543;SDS011;10933;50.754;11.508;2023-05-07T09:22:20;20.08;;;17.95;;
21543;SDS011;10933;50.754;11.508;2023-05-07T09:24:49;19.33;;;18.00;;
21543;SDS011;10933;50.754;11.508;2023-05-07T09:27:17;17.50;;;16.17;;
21543;SDS011;10933;50.754;11.508;2023-05-07T09:29:43;19.98;;;18.58;;
21543;SDS011;10933;50.754;11.508;2023-05-07T09:32:10;18.40;;;16.90;;
21543;SDS011;10933;50.754;11.508;2023-05-07T09:34:36;19.00;;;17.60;;
21543;SDS011;10933;50.754;11.508;2023-05-07T09:37:02;22.00;;;20.23;;
21543;SDS011;10933;50.754;11.508;2023-05-07T09:39:42;17.23;;;16.08;;
21543;SDS011;10933;50.754;11.508;2023-05-07T09:42:12;18.58;;;17.10;;
21543;SDS011;10933;50.754;11.508;2023-05-07T09:44:45;17.67;;;16.25;;
21543;SDS011;10933;50.754;11.508;2023-05-07T09:47:16;18.08;;;16.83;;
21543;SDS011;10933;50.754;11.508;2023-05-07T09:49:46;17.20;;;15.98;;
21543;SDS011;10933;50.754;11.508;2023-05-07T09:52:13;17.35;;;16.05;;
21543;SDS011;10933;50.754;11.508;2023-05-07T09:54:40;15.30;;;14.40;;
21543;SDS011;10933;50.754;11.508;2023-05-07T09:57:09;16.33;;;15.05;;
21543;SDS011;10933;50.754;11.508;2023-05-07T09:59:36;16.80;;;15.80;;
21543;SDS011;10933;50.754;11.508;2023-05-07T10:02:03;15.07;;;14.18;;
21543;SDS011;10933;50.754;11.508;2023-05-07T10:04:31;16.25;;;14.88;;
21543;SDS011;10933;50.754;11.508;2023-05-07T10:06:58;16.70;;;15.70;;
21543;SDS011;10933;50.754;11.508;2023-05-07T10:09:26;15.73;;;14.82;;
21543;SDS011;10933;50.754;11.508;2023-05-07T10:11:52;15.82;;;14.60;;
21543;SDS011;10933;50.754;11.508;2023-05-07T10:14:20;15.75;;;14.73;;
21543;SDS011;10933;50.754;11.508;2023-05-07T10:16:46;15.82;;;14.93;;
21543;SDS011;10933;50.754;11.508;2023-05-07T10:19:13;14.65;;;13.75;;
21543;SDS011;10933;50.754;11.508;2023-05-07T10:21:44;20.13;;;18.45;;
21543;SDS011;10933;50.754;11.508;2023-05-07T10:24:26;14.55;;;13.68;;
21543;SDS011;10933;50.754;11.508;2023-05-07T10:26:57;14.63;;;13.73;;
21543;SDS011;10933;50.754;11.508;2023-05-07T10:34:29;16.17;;;14.60;;
21543;SDS011;10933;50.754;11.508;2023-05-07T10:37:01;13.00;;;12.23;;
21543;SDS011;10933;50.754;11.508;2023-05-07T10:39:28;12.13;;;11.43;;
21543;SDS011;10933;50.754;11.508;2023-05-07T10:41:55;12.52;;;11.82;;
21543;SDS011;10933;50.754;11.508;2023-05-07T10:44:28;12.48;;;11.77;;
21543;SDS011;10933;50.754;11.508;2023-05-07T10:47:07;12.15;;;11.40;;
21543;SDS011;10933;50.754;11.508;2023-05-07T10:49:35;11.32;;;10.63;;
21543;SDS011;10933;50.754;11.508;2023-05-07T10:52:22;12.25;;;11.55;;
21543;SDS011;10933;50.754;11.508;2023-05-07T10:57:42;12.43;;;11.52;;
21543;SDS011;10933;50.754;11.508;2023-05-07T11:05:25;11.45;;;10.85;;
21543;SDS011;10933;50.754;11.508;2023-05-07T11:07:56;12.50;;;11.88;;
21543;SDS011;10933;50.754;11.508;2023-05-07T11:13:14;12.02;;;11.32;;
21543;SDS011;10933;50.754;11.508;2023-05-07T11:15:41;11.93;;;11.23;;
21543;SDS011;10933;50.754;11.508;2023-05-07T11:18:12;12.55;;;11.85;;
21543;SDS011;10933;50.754;11.508;2023-05-07T11:26:02;11.52;;;10.82;;
21543;SDS011;10933;50.754;11.508;2023-05-07T11:28:28;11.38;;;10.77;;
21543;SDS011;10933;50.754;11.508;2023-05-07T11:30:56;11.25;;;10.55;;
21543;SDS011;10933;50.754;11.508;2023-05-07T11:33:23;10.80;;;10.20;;
21543;SDS011;10933;50.754;11.508;2023-05-07T11:35:55;11.27;;;10.35;;
21543;SDS011;10933;50.754;11.508;2023-05-07T11:38:22;10.15;;;9.23;;
21543;SDS011;10933;50.754;11.508;2023-05-07T11:40:52;9.38;;;8.85;;
21543;SDS011;10933;50.754;11.508;2023-05-07T11:43:22;9.80;;;9.30;;
21543;SDS011;10933;50.754;11.508;2023-05-07T11:45:48;11.00;;;10.23;;
21543;SDS011;10933;50.754;11.508;2023-05-07T11:48:15;9.35;;;8.85;;
21543;SDS011;10933;50.754;11.508;2023-05-07T11:50:50;9.45;;;8.95;;
21543;SDS011;10933;50.754;11.508;2023-05-07T11:53:18;9.10;;;8.60;;
21543;SDS011;10933;50.754;11.508;2023-05-07T11:55:45;9.55;;;9.05;;
21543;SDS011;10933;50.754;11.508;2023-05-07T11:58:12;9.63;;;9.13;;
21543;SDS011;10933;50.754;11.508;2023-05-07T12:00:49;9.02;;;8.52;;
21543;SDS011;10933;50.754;11.508;2023-05-07T12:03:15;9.20;;;8.70;;
21543;SDS011;10933;50.754;11.508;2023-05-07T12:05:43;8.60;;;8.10;;
21543;SDS011;10933;50.754;11.508;2023-05-07T12:08:19;9.32;;;8.63;;
21543;SDS011;10933;50.754;11.508;2023-05-07T12:10:50;9.43;;;8.93;;
21543;SDS011;10933;50.754;11.508;2023-05-07T12:13:23;9.23;;;8.63;;
21543;SDS011;10933;50.754;11.508;2023-05-07T12:15:50;8.02;;;7.60;;
21543;SDS011;10933;50.754;11.508;2023-05-07T12:18:17;8.65;;;8.15;;
21543;SDS011;10933;50.754;11.508;2023-05-07T12:20:44;9.05;;;8.60;;
21543;SDS011;10933;50.754;11.508;2023-05-07T12:23:12;8.13;;;7.72;;
21543;SDS011;10933;50.754;11.508;2023-05-07T12:25:38;8.70;;;8.13;;
21543;SDS011;10933;50.754;11.508;2023-05-07T12:28:12;8.40;;;8.00;;
21543;SDS011;10933;50.754;11.508;2023-05-07T12:30:46;8.57;;;8.07;;
21543;SDS011;10933;50.754;11.508;2023-05-07T12:33:17;8.20;;;7.70;;
21543;SDS011;10933;50.754;11.508;2023-05-07T12:35:47;8.98;;;8.25;;
21543;SDS011;10933;50.754;11.508;2023-05-07T12:38:13;8.43;;;7.82;;
21543;SDS011;10933;50.754;11.508;2023-05-07T12:40:43;7.97;;;7.57;;
21543;SDS011;10933;50.754;11.508;2023-05-07T12:43:20;8.90;;;8.40;;
21543;SDS011;10933;50.754;11.508;2023-05-07T12:45:52;8.43;;;8.02;;
21543;SDS011;10933;50.754;11.508;2023-05-07T12:48:20;7.75;;;7.25;;
21543;SDS011;10933;50.754;11.508;2023-05-07T12:50:51;7.85;;;7.45;;
21543;SDS011;10933;50.754;11.508;2023-05-07T12:53:22;7.68;;;7.28;;
21543;SDS011;10933;50.754;11.508;2023-05-07T12:55:50;8.35;;;7.85;;
21543;SDS011;10933;50.754;11.508;2023-05-07T12:58:24;8.05;;;7.18;;
21543;SDS011;10933;50.754;11.508;2023-05-07T13:00:55;6.90;;;6.50;;
21543;SDS011;10933;50.754;11.508;2023-05-07T13:05:57;7.70;;;7.10;;
21543;SDS011;10933;50.754;11.508;2023-05-07T13:08:28;7.75;;;7.35;;
21543;SDS011;10933;50.754;11.508;2023-05-07T13:10:59;7.22;;;6.82;;
21543;SDS011;10933;50.754;11.508;2023-05-07T13:13:30;7.72;;;7.32;;
21543;SDS011;10933;50.754;11.508;2023-05-07T13:15:56;6.53;;;6.15;;
21543;SDS011;10933;50.754;11.508;2023-05-07T13:18:24;8.20;;;7.63;;
21543;SDS011;10933;50.754;11.508;2023-05-07T13:20:51;7.80;;;7.40;;
21543;SDS011;10933;50.754;11.508;2023-05-07T13:23:17;6.45;;;6.15;;
21543;SDS011;10933;50.754;11.508;2023-05-07T13:25:44;7.15;;;6.78;;
21543;SDS011;10933;50.754;11.508;2023-05-07T13:28:10;6.93;;;6.63;;
21543;SDS011;10933;50.754;11.508;2023-05-07T13:30:36;7.25;;;6.78;;
21543;SDS011;10933;50.754;11.508;2023-05-07T13:33:03;6.80;;;6.40;;
21543;SDS011;10933;50.754;11.508;2023-05-07T13:35:29;7.03;;;6.68;;
21543;SDS011;10933;50.754;11.508;2023-05-07T13:37:55;6.80;;;6.50;;
21543;SDS011;10933;50.754;11.508;2023-05-07T13:40:22;7.57;;;6.45;;
21543;SDS011;10933;50.754;11.508;2023-05-07T13:42:48;7.60;;;7.10;;
21543;SDS011;10933;50.754;11.508;2023-05-07T13:45:15;6.97;;;6.15;;
21543;SDS011;10933;50.754;11.508;2023-05-07T13:47:42;6.72;;;6.32;;
21543;SDS011;10933;50.754;11.508;2023-05-07T13:50:09;7.47;;;6.90;;
21543;SDS011;10933;50.754;11.508;2023-05-07T13:52:37;6.68;;;6.35;;
21543;SDS011;10933;50.754;11.508;2023-05-07T13:55:05;7.03;;;6.63;;
21543;SDS011;10933;50.754;11.508;2023-05-07T13:57:32;6.78;;;6.38;;
21543;SDS011;10933;50.754;11.508;2023-05-07T13:59:58;7.22;;;6.72;;
21543;SDS011;10933;50.754;11.508;2023-05-07T14:02:24;7.10;;;6.70;;
21543;SDS011;10933;50.754;11.508;2023-05-07T14:04:50;6.43;;;6.05;;
21543;SDS011;10933;50.754;11.508;2023-05-07T14:07:16;6.63;;;6.32;;
21543;SDS011;10933;50.754;11.508;2023-05-07T14:09:42;6.97;;;6.68;;
21543;SDS011;10933;50.754;11.508;2023-05-07T14:12:10;6.90;;;6.60;;
21543;SDS011;10933;50.754;11.508;2023-05-07T14:14:36;7.03;;;6.57;;
21543;SDS011;10933;50.754;11.508;2023-05-07T14:17:02;6.50;;;6.20;;
21543;SDS011;10933;50.754;11.508;2023-05-07T14:19:28;6.80;;;6.50;;
21543;SDS011;10933;50.754;11.508;2023-05-07T14:21:54;6.32;;;6.03;;
21543;SDS011;10933;50.754;11.508;2023-05-07T14:24:21;6.18;;;5.88;;
21543;SDS011;10933;50.754;11.508;2023-05-07T14:26:47;6.20;;;5.90;;
21543;SDS011;10933;50.754;11.508;2023-05-07T14:29:13;5.75;;;5.45;;
21543;SDS011;10933;50.754;11.508;2023-05-07T14:31:43;6.28;;;5.68;;
21543;SDS011;10933;50.754;11.508;2023-05-07T14:34:10;5.20;;;5.00;;
21543;SDS011;10933;50.754;11.508;2023-05-07T14:36:36;5.55;;;5.00;;